createdAt,value
2019-01-21T00:01:37.721Z,4.55
2019-01-21T00:04:08.510Z,4.54
2019-01-21T00:06:38.936Z,4.54
2019-01-21T00:09:09.828Z,4.50
2019-01-21T00:11:40.399Z,4.48
2019-01-21T00:14:10.910Z,4.47
2019-01-21T00:16:41.327Z,4.41
2019-01-21T00:19:11.779Z,4.38
2019-01-21T00:21:42.203Z,4.37
2019-01-21T00:24:12.661Z,4.39
2019-01-21T00:26:43.169Z,4.38
2019-01-21T00:29:13.600Z,4.33
2019-01-21T00:31:44.054Z,4.34
2019-01-21T00:34:14.463Z,4.35
2019-01-21T00:36:44.908Z,4.35
2019-01-21T00:39:15.357Z,4.37
2019-01-21T00:41:45.763Z,4.37
2019-01-21T00:44:16.211Z,4.37
2019-01-21T00:46:46.681Z,4.30
2019-01-21T00:49:17.110Z,4.19
2019-01-21T00:51:47.533Z,4.12
2019-01-21T00:54:17.996Z,4.13
2019-01-21T00:56:48.503Z,4.09
2019-01-21T00:59:19.019Z,3.75
2019-01-21T01:01:49.440Z,3.83
2019-01-21T01:04:19.871Z,3.77
2019-01-21T01:06:50.370Z,3.78
2019-01-21T01:09:20.783Z,3.85
2019-01-21T01:11:51.227Z,3.89
2019-01-21T01:14:21.674Z,3.85
2019-01-21T01:16:52.079Z,3.83
2019-01-21T01:19:22.546Z,3.93
2019-01-21T01:21:52.961Z,3.92
2019-01-21T01:24:23.424Z,3.73
2019-01-21T01:26:53.854Z,3.89
2019-01-21T01:29:24.372Z,4.00
2019-01-21T01:31:54.796Z,4.05
2019-01-21T01:34:25.203Z,4.03
2019-01-21T01:36:55.690Z,4.02
2019-01-21T01:39:26.084Z,4.06
2019-01-21T01:41:56.650Z,4.06
2019-01-21T01:44:27.544Z,4.00
2019-01-21T01:46:57.997Z,3.97
2019-01-21T01:49:28.420Z,3.97
2019-01-21T01:51:58.835Z,3.89
2019-01-21T01:54:29.295Z,3.89
2019-01-21T01:56:59.977Z,3.91
2019-01-21T01:59:30.439Z,3.92
2019-01-21T02:02:00.951Z,3.92
2019-01-21T02:04:31.358Z,3.88
2019-01-21T02:07:01.863Z,3.88
2019-01-21T02:09:32.323Z,3.88
2019-01-21T02:12:02.838Z,3.86
2019-01-21T02:14:33.247Z,3.84
2019-01-21T02:17:03.730Z,3.81
2019-01-21T02:19:36.354Z,3.76
2019-01-21T02:22:06.894Z,3.76
2019-01-21T02:24:41.529Z,3.68
2019-01-21T02:27:21.635Z,3.70
2019-01-21T02:30:26.508Z,3.70
2019-01-21T02:33:58.564Z,3.73
2019-01-21T02:37:10.159Z,3.77
2019-01-21T02:39:56.661Z,3.81
2019-01-21T02:43:01.616Z,3.73
2019-01-21T02:45:55.515Z,3.83
2019-01-21T02:48:52.721Z,3.88
2019-01-21T02:51:50.726Z,3.88
2019-01-21T02:54:48.695Z,3.86
2019-01-21T02:57:55.799Z,3.86
2019-01-21T03:00:51.481Z,3.82
2019-01-21T03:03:39.707Z,3.73
2019-01-21T03:06:44.514Z,3.61
2019-01-21T03:09:46.926Z,3.56
2019-01-21T03:12:56.214Z,3.47
2019-01-21T03:16:02.949Z,3.42
2019-01-21T03:19:15.552Z,3.42
2019-01-21T03:22:14.146Z,3.42
2019-01-21T03:25:27.212Z,3.37
2019-01-21T03:28:26.078Z,3.34
2019-01-21T03:32:01.665Z,3.27
2019-01-21T03:35:11.345Z,3.22
2019-01-21T03:38:15.884Z,3.21
2019-01-21T03:41:10.110Z,3.16
2019-01-21T03:44:12.494Z,3.10
2019-01-21T03:47:05.629Z,3.05
2019-01-21T03:49:56.707Z,3.05
2019-01-21T03:52:50.724Z,3.02
2019-01-21T03:55:21.497Z,3.02
2019-01-21T03:58:40.626Z,2.97
2019-01-21T04:01:32.126Z,2.97
2019-01-21T04:04:43.778Z,2.19
2019-01-21T04:07:43.556Z,2.92
2019-01-21T04:10:46.595Z,2.80
2019-01-21T04:14:03.705Z,2.80
2019-01-21T04:17:08.990Z,2.80
2019-01-21T04:20:03.792Z,2.80
2019-01-21T04:22:58.509Z,2.78
2019-01-21T04:26:12.306Z,2.71
2019-01-21T04:29:02.952Z,2.71
2019-01-21T04:32:12.369Z,2.70
2019-01-21T04:35:09.363Z,2.68
2019-01-21T04:38:11.842Z,2.70
2019-01-21T04:41:47.426Z,2.62
2019-01-21T04:44:53.251Z,2.61
2019-01-21T04:47:58.498Z,2.61
2019-01-21T04:51:15.670Z,2.61
2019-01-21T04:54:15.743Z,2.60
2019-01-21T04:57:12.159Z,2.64
2019-01-21T05:00:32.057Z,2.73
2019-01-21T05:03:54.010Z,2.73
2019-01-21T05:07:23.166Z,2.76
2019-01-21T05:10:37.397Z,2.70
2019-01-21T05:13:33.203Z,2.70
2019-01-21T05:16:36.883Z,2.70
2019-01-21T05:19:32.370Z,2.66
2019-01-21T05:23:04.788Z,2.61
2019-01-21T05:26:06.820Z,2.61
2019-01-21T05:29:06.234Z,2.55
2019-01-21T05:32:24.631Z,2.51
2019-01-21T05:35:53.501Z,2.49
2019-01-21T05:38:51.182Z,2.45
2019-01-21T05:42:23.480Z,2.48
2019-01-21T05:45:36.132Z,2.02
2019-01-21T05:48:59.300Z,1.98
2019-01-21T05:52:13.536Z,1.98
2019-01-21T05:55:06.566Z,2.07
2019-01-21T05:58:20.472Z,2.08
2019-01-21T06:01:58.603Z,2.09
2019-01-21T06:04:48.238Z,2.02
2019-01-21T06:07:54.632Z,1.86
2019-01-21T06:10:40.847Z,1.92
2019-01-21T06:13:56.286Z,1.94
2019-01-21T06:16:51.913Z,2.02
2019-01-21T06:19:59.102Z,2.02
2019-01-21T06:23:03.080Z,2.16
2019-01-21T06:26:38.536Z,2.28
2019-01-21T06:29:59.258Z,2.34
2019-01-21T06:33:15.437Z,2.03
2019-01-21T06:36:41.843Z,1.97
2019-01-21T06:39:41.090Z,2.16
2019-01-21T06:42:53.831Z,2.71
2019-01-21T06:46:10.878Z,2.90
2019-01-21T06:49:13.540Z,2.90
2019-01-21T06:52:29.746Z,2.35
2019-01-21T06:55:36.270Z,2.35
2019-01-21T06:58:53.126Z,3.03
2019-01-21T07:01:50.215Z,3.03
2019-01-21T07:05:02.372Z,3.03
2019-01-21T07:08:03.260Z,3.26
2019-01-21T07:11:02.307Z,3.33
2019-01-21T07:14:10.233Z,3.33
2019-01-21T07:17:01.793Z,3.39
2019-01-21T07:20:01.397Z,3.52
2019-01-21T07:22:54.931Z,3.52
2019-01-21T07:26:14.623Z,3.65
2019-01-21T07:29:21.473Z,3.73
2019-01-21T07:32:17.143Z,3.76
2019-01-21T07:35:24.468Z,3.80
2019-01-21T07:38:31.575Z,3.84
2019-01-21T07:41:27.345Z,3.83
2019-01-21T07:44:24.027Z,3.94
2019-01-21T07:47:39.782Z,3.94
2019-01-21T07:51:08.999Z,4.10
2019-01-21T07:54:25.607Z,4.21
2019-01-21T07:57:40.184Z,4.33
2019-01-21T08:00:41.017Z,4.33
2019-01-21T08:03:56.509Z,4.35
2019-01-21T08:07:07.549Z,4.43
2019-01-21T08:10:10.918Z,4.50
2019-01-21T08:13:16.678Z,4.58
2019-01-21T08:16:33.695Z,4.63
2019-01-21T08:19:49.376Z,4.74
2019-01-21T08:22:51.314Z,4.84
2019-01-21T08:26:17.231Z,4.93
2019-01-21T08:29:29.510Z,5.08
2019-01-21T08:32:37.010Z,5.28
2019-01-21T08:35:42.756Z,5.42
2019-01-21T08:39:14.706Z,5.59
2019-01-21T08:42:21.111Z,5.73
2019-01-21T08:45:44.040Z,6.09
2019-01-21T08:48:39.657Z,6.09
2019-01-21T08:51:33.571Z,6.16
2019-01-21T08:54:56.746Z,6.40
2019-01-21T08:58:06.568Z,6.53
2019-01-21T09:00:59.208Z,6.65
2019-01-21T09:03:42.071Z,6.80
2019-01-21T09:07:09.027Z,6.94
2019-01-21T09:09:50.031Z,7.04
2019-01-21T09:13:07.198Z,7.22
2019-01-21T09:16:21.710Z,7.32
2019-01-21T09:19:12.577Z,7.47
2019-01-21T09:22:13.477Z,7.51
2019-01-21T09:25:13.798Z,7.56
2019-01-21T09:28:01.231Z,7.64
2019-01-21T09:30:51.970Z,7.75
2019-01-21T09:33:52.061Z,7.79
2019-01-21T09:36:31.528Z,7.88
2019-01-21T09:39:29.268Z,7.98
2019-01-21T09:42:22.402Z,8.11
2019-01-21T09:45:13.965Z,8.23
2019-01-21T09:47:42.449Z,8.28
2019-01-21T09:50:13.185Z,8.35
2019-01-21T09:52:44.603Z,8.45
2019-01-21T09:55:16.512Z,8.59
2019-01-21T09:57:47.916Z,8.68
2019-01-21T10:00:20.002Z,8.76
2019-01-21T10:02:52.395Z,8.84
2019-01-21T10:05:26.096Z,8.90
2019-01-21T10:08:18.189Z,8.98
2019-01-21T10:11:09.547Z,8.97
2019-01-21T10:14:19.744Z,9.06
2019-01-21T10:17:08.150Z,9.02
2019-01-21T10:20:12.709Z,9.21
2019-01-21T10:23:19.516Z,9.23
2019-01-21T10:26:33.559Z,9.34
2019-01-21T10:29:23.055Z,9.25
2019-01-21T10:32:18.238Z,9.25
2019-01-21T10:35:29.057Z,9.43
2019-01-21T10:38:37.841Z,9.37
2019-01-21T10:41:22.066Z,9.38
2019-01-21T10:44:11.045Z,9.43
2019-01-21T10:47:12.105Z,9.48
2019-01-21T10:50:14.130Z,9.53
2019-01-21T10:53:27.046Z,9.65
2019-01-21T10:56:47.273Z,9.69
2019-01-21T10:59:35.319Z,9.77
2019-01-21T11:02:47.895Z,9.64
2019-01-21T11:05:54.228Z,9.81
2019-01-21T11:09:26.832Z,9.92
2019-01-21T11:12:35.634Z,10.02
2019-01-21T11:15:39.571Z,10.05
2019-01-21T11:18:42.001Z,10.19
2019-01-21T11:21:51.875Z,10.24
2019-01-21T11:24:55.030Z,10.30
2019-01-21T11:28:01.833Z,10.30
2019-01-21T11:31:17.987Z,10.41
2019-01-21T11:34:26.460Z,10.48
2019-01-21T11:37:31.797Z,10.60
2019-01-21T11:40:44.750Z,10.66
2019-01-21T11:43:57.523Z,10.62
2019-01-21T11:47:12.468Z,10.61
2019-01-21T11:50:20.905Z,10.71
2019-01-21T11:53:16.815Z,10.77
2019-01-21T11:56:30.100Z,10.86
2019-01-21T11:59:47.446Z,10.95
2019-01-21T12:02:45.343Z,11.00
2019-01-21T12:05:24.886Z,10.96
2019-01-21T12:09:00.196Z,11.01
2019-01-21T12:12:13.282Z,11.06
2019-01-21T12:15:38.193Z,10.97
2019-01-21T12:18:33.721Z,10.97
2019-01-21T12:21:40.939Z,11.09
2019-01-21T12:24:32.911Z,11.17
2019-01-21T12:27:55.421Z,11.21
2019-01-21T12:30:39.978Z,11.28
2019-01-21T12:33:31.887Z,11.38
2019-01-21T12:36:33.076Z,11.43
2019-01-21T12:39:22.657Z,11.40
2019-01-21T12:42:24.065Z,11.46
2019-01-21T12:45:53.869Z,11.52
2019-01-21T12:49:15.274Z,11.51
2019-01-21T12:52:00.997Z,11.57
2019-01-21T12:54:59.214Z,11.61
2019-01-21T12:57:56.340Z,11.64
2019-01-21T13:00:53.960Z,11.68
2019-01-21T13:03:44.315Z,11.70
2019-01-21T13:07:04.240Z,11.75
2019-01-21T13:09:45.329Z,11.73
2019-01-21T13:12:42.677Z,11.75
2019-01-21T13:15:27.526Z,11.74
2019-01-21T13:18:30.547Z,11.75
2019-01-21T13:21:36.628Z,11.77
2019-01-21T13:24:53.554Z,11.79
2019-01-21T13:27:52.740Z,11.79
2019-01-21T13:30:59.415Z,11.83
2019-01-21T13:33:56.312Z,11.06
2019-01-21T13:37:20.776Z,11.79
2019-01-21T13:40:12.907Z,11.82
2019-01-21T13:43:05.777Z,11.78
2019-01-21T13:46:04.826Z,11.76
2019-01-21T13:49:07.464Z,11.70
2019-01-21T13:52:42.657Z,11.69
2019-01-21T13:55:33.337Z,11.63
2019-01-21T13:59:11.484Z,11.60
2019-01-21T14:02:08.315Z,11.58
2019-01-21T14:05:09.928Z,11.53
2019-01-21T14:08:03.290Z,11.52
2019-01-21T14:10:59.027Z,11.44
2019-01-21T14:14:01.394Z,11.43
2019-01-21T14:17:03.681Z,11.40
2019-01-21T14:19:52.698Z,11.29
2019-01-21T14:22:50.756Z,11.21
2019-01-21T14:25:49.497Z,11.19
2019-01-21T14:29:00.861Z,11.09
2019-01-21T14:32:26.147Z,11.12
2019-01-21T14:35:07.427Z,11.02
2019-01-21T14:38:15.821Z,11.01
2019-01-21T14:41:29.917Z,10.92
2019-01-21T14:44:33.798Z,10.84
2019-01-21T14:47:37.024Z,10.72
2019-01-21T14:50:34.752Z,10.75
2019-01-21T14:53:39.224Z,10.67
2019-01-21T14:56:42.318Z,10.51
2019-01-21T14:59:43.178Z,10.49
2019-01-21T15:02:46.156Z,10.41
2019-01-21T15:06:03.175Z,10.30
2019-01-21T15:08:57.875Z,10.24
2019-01-21T15:12:07.630Z,10.18
2019-01-21T15:15:14.451Z,10.08
2019-01-21T15:18:15.649Z,9.93
2019-01-21T15:21:04.201Z,9.88
2019-01-21T15:24:11.094Z,9.80
2019-01-21T15:27:03.982Z,9.73
2019-01-21T15:29:59.844Z,9.55
2019-01-21T15:32:54.954Z,9.40
2019-01-21T15:36:11.979Z,8.43
2019-01-21T15:39:03.773Z,9.04
2019-01-21T15:41:44.592Z,8.80
2019-01-21T15:44:33.022Z,8.38
2019-01-21T15:47:35.978Z,8.25
2019-01-21T15:50:41.085Z,8.12
2019-01-21T15:53:31.014Z,8.02
2019-01-21T15:56:39.756Z,7.91
2019-01-21T15:59:49.166Z,7.81
2019-01-21T16:02:31.383Z,7.81
2019-01-21T16:05:23.860Z,7.79
2019-01-21T16:08:21.248Z,7.65
2019-01-21T16:11:38.230Z,7.65
2019-01-21T16:14:26.136Z,6.81
2019-01-21T16:17:22.581Z,7.53
2019-01-21T16:20:01.005Z,7.53
2019-01-21T16:23:09.894Z,7.51
2019-01-21T16:26:23.851Z,7.52
2019-01-21T16:29:32.620Z,7.56
2019-01-21T16:32:52.780Z,7.60
2019-01-21T16:36:11.068Z,7.65
2019-01-21T16:39:16.957Z,7.67
2019-01-21T16:42:13.078Z,7.70
2019-01-21T16:44:44.995Z,7.73
2019-01-21T16:47:15.547Z,7.75
2019-01-21T16:49:46.219Z,7.76
2019-01-21T16:52:16.738Z,7.79
2019-01-21T16:54:47.156Z,7.84
2019-01-21T16:57:17.628Z,7.86
2019-01-21T16:59:48.084Z,7.87
2019-01-21T17:02:18.500Z,7.90
2019-01-21T17:04:49.069Z,7.93
2019-01-21T17:07:19.493Z,7.94
2019-01-21T17:09:50.052Z,7.98
2019-01-21T17:12:20.508Z,7.99
2019-01-21T17:14:57.485Z,7.96
2019-01-21T17:17:23.117Z,8.01
2019-01-21T17:19:53.577Z,8.04
2019-01-21T17:22:24.049Z,8.08
2019-01-21T17:24:54.485Z,8.09
2019-01-21T17:27:24.939Z,8.06
2019-01-21T17:29:55.488Z,8.02
2019-01-21T17:32:25.905Z,7.98
2019-01-21T17:34:56.834Z,7.99
2019-01-21T17:37:27.278Z,8.02
2019-01-21T17:39:57.836Z,7.99
2019-01-21T17:42:28.255Z,7.97
2019-01-21T17:44:58.709Z,7.95
2019-01-21T17:47:29.129Z,7.91
2019-01-21T17:49:59.692Z,7.93
2019-01-21T17:52:30.109Z,7.92
2019-01-21T17:55:00.576Z,7.94
2019-01-21T17:57:31.005Z,7.96
2019-01-21T18:00:01.465Z,7.91
2019-01-21T18:02:31.888Z,7.85
2019-01-21T18:05:02.308Z,7.88
2019-01-21T18:07:32.769Z,7.86
2019-01-21T18:10:03.188Z,7.83
2019-01-21T18:12:33.660Z,7.81
2019-01-21T18:15:04.536Z,7.83
2019-01-21T18:17:34.987Z,7.79
2019-01-21T18:20:07.845Z,7.59
2019-01-21T18:22:38.318Z,7.50
2019-01-21T18:25:10.092Z,7.28
2019-01-21T18:27:40.615Z,7.34
2019-01-21T18:30:17.676Z,7.13
2019-01-21T18:32:48.298Z,7.10
2019-01-21T18:35:18.747Z,7.00
2019-01-21T18:37:49.267Z,6.87
2019-01-21T18:40:20.791Z,6.84
2019-01-21T18:42:51.790Z,6.66
2019-01-21T18:45:24.928Z,6.54
2019-01-21T18:47:55.509Z,6.53
2019-01-21T18:50:26.094Z,6.54
2019-01-21T18:52:56.664Z,6.60
2019-01-21T18:55:27.185Z,6.54
2019-01-21T18:57:57.677Z,6.64
2019-01-21T19:00:28.232Z,6.64
2019-01-21T19:02:58.683Z,6.58
2019-01-21T19:05:29.203Z,6.56
2019-01-21T19:07:59.672Z,6.43
2019-01-21T19:10:30.136Z,6.39
2019-01-21T19:13:00.609Z,6.41
2019-01-21T19:15:32.778Z,6.35
2019-01-21T19:18:03.695Z,6.20
2019-01-21T19:20:34.098Z,6.06
2019-01-21T19:23:04.664Z,5.99
2019-01-21T19:25:35.229Z,6.04
2019-01-21T19:28:05.851Z,5.92
2019-01-21T19:30:36.330Z,5.93
2019-01-21T19:33:06.854Z,5.75
2019-01-21T19:35:38.646Z,5.52
2019-01-21T19:38:09.148Z,5.54
2019-01-21T19:40:39.622Z,5.61
2019-01-21T19:43:10.026Z,5.66
2019-01-21T19:45:40.488Z,5.62
2019-01-21T19:48:11.006Z,5.63
2019-01-21T19:50:41.436Z,5.64
2019-01-21T19:53:11.893Z,5.68
2019-01-21T19:55:43.955Z,5.70
2019-01-21T19:58:14.889Z,5.72
2019-01-21T20:00:45.414Z,5.69
2019-01-21T20:03:15.935Z,5.63
2019-01-21T20:05:46.499Z,5.58
2019-01-21T20:08:16.916Z,5.57
2019-01-21T20:10:47.386Z,5.50
2019-01-21T20:13:17.811Z,5.49
2019-01-21T20:15:48.243Z,5.54
2019-01-21T20:18:18.709Z,5.49
2019-01-21T20:20:49.116Z,5.49
2019-01-21T20:23:19.594Z,5.45
2019-01-21T20:25:50.008Z,5.40
2019-01-21T20:28:20.435Z,5.37
2019-01-21T20:30:50.856Z,5.34
2019-01-21T20:33:21.305Z,5.26
2019-01-21T20:35:51.737Z,5.24
2019-01-21T20:38:22.201Z,5.13
2019-01-21T20:40:52.631Z,5.09
2019-01-21T20:43:23.087Z,5.06
2019-01-21T20:45:53.506Z,5.06
2019-01-21T20:48:23.943Z,5.09
2019-01-21T20:50:54.452Z,5.21
2019-01-21T20:53:24.904Z,5.21
2019-01-21T20:55:55.338Z,5.22
2019-01-21T20:58:25.896Z,5.18
2019-01-21T21:00:56.428Z,5.23
2019-01-21T21:03:26.900Z,5.16
2019-01-21T21:05:57.336Z,5.23
2019-01-21T21:08:27.796Z,5.24
2019-01-21T21:10:58.267Z,5.32
2019-01-21T21:13:28.691Z,5.36
2019-01-21T21:15:59.116Z,5.34
2019-01-21T21:18:29.584Z,5.35
2019-01-21T21:21:00.055Z,5.34
2019-01-21T21:23:30.525Z,5.37
2019-01-21T21:26:00.976Z,5.41
2019-01-21T21:28:31.614Z,5.46
2019-01-21T21:31:02.042Z,5.46
2019-01-21T21:33:32.517Z,5.44
2019-01-21T21:36:02.945Z,5.38
2019-01-21T21:38:33.398Z,5.38
2019-01-21T21:41:04.241Z,5.35
2019-01-21T21:43:34.664Z,5.25
2019-01-21T21:46:05.261Z,5.19
2019-01-21T21:48:35.711Z,5.18
2019-01-21T21:51:06.145Z,5.18
2019-01-21T21:53:36.784Z,5.09
2019-01-21T21:56:07.205Z,5.08
2019-01-21T21:58:37.683Z,5.14
2019-01-21T22:01:08.244Z,5.14
2019-01-21T22:03:38.650Z,5.26
2019-01-21T22:06:09.230Z,5.19
2019-01-21T22:08:39.685Z,5.23
2019-01-21T22:11:10.110Z,5.26
2019-01-21T22:13:40.685Z,5.21
2019-01-21T22:16:11.104Z,5.18
2019-01-21T22:18:41.562Z,5.21
2019-01-21T22:21:11.983Z,5.19
2019-01-21T22:23:42.441Z,5.17
2019-01-21T22:26:12.901Z,5.05
2019-01-21T22:28:43.634Z,4.99
2019-01-21T22:31:14.059Z,4.88
2019-01-21T22:33:44.516Z,4.86
2019-01-21T22:36:14.948Z,4.76
2019-01-21T22:38:45.409Z,4.77
2019-01-21T22:41:15.868Z,4.83
2019-01-21T22:43:46.276Z,4.84
2019-01-21T22:46:16.693Z,4.92
2019-01-21T22:48:47.112Z,4.94
2019-01-21T22:51:17.637Z,4.89
2019-01-21T22:53:48.110Z,4.88
2019-01-21T22:56:18.530Z,4.82
2019-01-21T22:58:48.959Z,4.75
2019-01-21T23:01:24.641Z,4.73
2019-01-21T23:03:55.241Z,4.79
2019-01-21T23:06:25.795Z,4.84
2019-01-21T23:08:56.253Z,4.82
2019-01-21T23:11:26.665Z,4.84
2019-01-21T23:13:57.080Z,4.85
2019-01-21T23:16:27.539Z,4.79
2019-01-21T23:18:57.967Z,4.80
2019-01-21T23:21:28.374Z,4.75
2019-01-21T23:23:58.835Z,4.72
2019-01-21T23:26:29.235Z,4.76
2019-01-21T23:28:59.800Z,4.78
2019-01-21T23:31:30.272Z,4.75
2019-01-21T23:34:00.741Z,4.82
2019-01-21T23:36:31.233Z,4.86
2019-01-21T23:39:01.935Z,4.88
2019-01-21T23:41:32.409Z,4.90
2019-01-21T23:44:02.915Z,4.88
2019-01-21T23:46:33.366Z,4.89
2019-01-21T23:49:03.777Z,4.77
2019-01-21T23:51:34.475Z,4.68
2019-01-21T23:54:05.028Z,4.65
2019-01-21T23:56:35.454Z,4.63
2019-01-21T23:59:06.019Z,4.67
